Time;durP1;ratioP1;P1;durP2;ratioP2;P2;SDS_P1;SDS_P2;PMS_P1;PMS_P2;Temp;Humidity;BMP_temperature;BMP_pressure;BME280_temperature;BME280_humidity;BME280_pressure;Samples;Min_cycle;Max_cycle;Signal;HPM_P1;HPM_P2
2022/11/09 00:00:43;;;;;;;6.93;4.05;;;;;;;9.97;76.69;97827.25;4969236;28;20037;-83
2022/11/09 00:03:10;;;;;;;5.85;4.20;;;;;;;10.02;76.52;97835.31;4969848;28;20427;-84
2022/11/09 00:05:36;;;;;;;7.38;4.53;;;;;;;9.99;76.80;97833.09;4967696;28;20125;-84
2022/11/09 00:08:06;;;;;;;6.60;4.40;;;;;;;9.90;76.69;97814.97;4970350;28;20050;-84
2022/11/09 00:10:32;;;;;;;6.32;4.13;;;;;;;9.99;76.97;97820.00;4969481;28;20101;-84
2022/11/09 00:12:58;;;;;;;7.63;4.55;;;;;;;9.96;76.82;97815.16;4968569;28;20475;-84
2022/11/09 00:15:23;;;;;;;6.80;4.50;;;;;;;9.99;76.75;97814.75;4968941;28;20112;-84
2022/11/09 00:17:49;;;;;;;8.45;4.55;;;;;;;9.98;76.85;97810.53;4969586;28;20126;-84
2022/11/09 00:20:15;;;;;;;8.13;4.32;;;;;;;9.95;76.75;97803.84;4972217;28;20569;-84
2022/11/09 00:22:40;;;;;;;5.28;3.83;;;;;;;9.93;76.69;97811.13;4972374;28;20065;-84
2022/11/09 00:25:06;;;;;;;6.57;4.68;;;;;;;9.92;77.24;97799.84;4972229;28;20125;-84
2022/11/09 00:27:32;;;;;;;5.03;4.15;;;;;;;9.83;77.05;97793.19;4972304;28;20482;-84
2022/11/09 00:29:57;;;;;;;10.65;4.43;;;;;;;9.80;77.43;97798.03;4972222;28;20050;-84
2022/11/09 00:32:23;;;;;;;5.28;3.90;;;;;;;9.79;77.58;97799.84;4972410;28;20063;-84
2022/11/09 00:34:48;;;;;;;5.80;4.18;;;;;;;9.75;77.58;97784.72;4972176;28;20043;-84
2022/11/09 00:37:15;;;;;;;6.10;4.10;;;;;;;9.80;77.45;97790.97;4972085;28;20125;-84
2022/11/09 00:39:40;;;;;;;5.97;4.45;;;;;;;9.80;77.80;97785.75;4972294;28;20046;-84
2022/11/09 00:42:06;;;;;;;6.25;4.28;;;;;;;9.72;77.69;97770.25;4987240;28;20035;-84
2022/11/09 00:44:32;;;;;;;4.63;3.88;;;;;;;9.77;77.86;97785.34;4973551;28;20039;-84
2022/11/09 00:46:57;;;;;;;6.28;4.18;;;;;;;9.74;78.06;97796.22;4972260;28;20118;-84
2022/11/09 00:49:23;;;;;;;5.45;4.22;;;;;;;9.73;78.05;97795.41;4972113;28;20046;-84
2022/11/09 00:51:48;;;;;;;6.25;4.07;;;;;;;9.76;77.98;97807.28;4971816;28;20081;-81
2022/11/09 00:54:13;;;;;;;5.20;4.20;;;;;;;9.76;78.07;97805.47;4968927;28;20035;-81
2022/11/09 00:56:39;;;;;;;6.72;4.55;;;;;;;9.80;78.10;97805.91;4972200;28;20507;-81
2022/11/09 00:59:04;;;;;;;6.60;4.20;;;;;;;9.80;78.35;97801.47;4978453;28;20035;-81
2022/11/09 01:01:30;;;;;;;5.28;4.15;;;;;;;9.80;78.13;97809.31;4971666;28;20043;-82
2022/11/09 01:03:55;;;;;;;5.32;4.25;;;;;;;9.79;78.01;97810.34;4971867;28;21272;-82
2022/11/09 01:06:24;;;;;;;5.55;3.95;;;;;;;9.79;78.64;97797.22;4972752;28;20493;-81
2022/11/09 01:08:50;;;;;;;7.18;4.07;;;;;;;9.81;78.50;97789.16;4970916;28;20047;-81
2022/11/09 01:11:18;;;;;;;6.10;4.10;;;;;;;9.79;77.92;97796.44;4971706;28;20522;-81
2022/11/09 01:13:45;;;;;;;5.72;3.95;;;;;;;9.77;77.77;97801.84;4971628;28;20042;-81
2022/11/09 01:16:16;;;;;;;5.63;4.07;;;;;;;9.75;78.14;97796.00;4971304;28;20039;-81
2022/11/09 01:18:42;;;;;;;5.05;4.15;;;;;;;9.75;77.74;97790.78;4971400;28;20062;-81
2022/11/09 01:21:11;;;;;;;6.68;4.55;;;;;;;9.75;78.21;97793.41;4971294;28;20026;-81
2022/11/09 01:23:38;;;;;;;5.63;4.03;;;;;;;9.76;78.04;97805.47;4971439;28;20042;-81
2022/11/09 01:26:07;;;;;;;7.72;4.22;;;;;;;9.80;78.25;97798.84;4971141;28;20037;-82
2022/11/09 01:28:33;;;;;;;8.02;4.60;;;;;;;9.78;78.33;97781.72;4970448;28;20042;-81
2022/11/09 01:31:06;;;;;;;5.88;4.22;;;;;;;9.77;77.50;97780.91;4971132;28;20093;-82
2022/11/09 01:33:31;;;;;;;8.38;4.53;;;;;;;9.74;77.89;97780.50;4970183;28;20071;-82
2022/11/09 01:36:12;;;;;;;5.38;3.80;;;;;;;9.67;77.77;97780.50;4972175;28;20034;-81
2022/11/09 01:38:39;;;;;;;6.73;4.40;;;;;;;9.63;78.31;97779.28;4971084;28;20038;-82
2022/11/09 01:41:06;;;;;;;5.63;4.25;;;;;;;9.67;77.82;97770.03;4970427;28;20050;-82
2022/11/09 01:43:32;;;;;;;7.38;4.40;;;;;;;9.63;77.78;97774.84;4965691;28;20038;-82
2022/11/09 01:46:24;;;;;;;6.38;4.43;;;;;;;9.68;77.95;97771.66;4970617;28;20082;-81
2022/11/09 01:49:02;;;;;;;5.50;4.28;;;;;;;9.72;77.82;97766.81;4969480;28;20045;-82
2022/11/09 01:51:41;;;;;;;5.70;4.22;;;;;;;9.72;77.50;97767.63;4971383;28;20040;-81
2022/11/09 01:54:21;;;;;;;6.63;4.35;;;;;;;9.72;77.78;97762.38;4966667;28;20050;-82
2022/11/09 01:56:55;;;;;;;5.40;4.13;;;;;;;9.65;77.22;97767.63;4971532;28;20134;-81
2022/11/09 01:59:28;;;;;;;6.38;4.38;;;;;;;9.68;78.08;97760.38;4968904;28;20130;-82
2022/11/09 02:01:55;;;;;;;5.15;4.20;;;;;;;9.66;78.10;97768.44;4969738;28;20031;-81
2022/11/09 02:04:48;;;;;;;5.75;4.35;;;;;;;9.70;78.08;97768.81;4969347;28;20042;-81
2022/11/09 02:07:14;;;;;;;5.57;4.00;;;;;;;9.77;78.12;97769.63;4969359;28;20395;-81
2022/11/09 02:09:39;;;;;;;7.50;4.38;;;;;;;9.80;77.47;97770.03;4970830;28;20039;-81
2022/11/09 02:12:07;;;;;;;6.82;3.75;;;;;;;9.82;77.43;97762.75;4968610;28;20093;-82
2022/11/09 02:14:35;;;;;;;7.70;4.22;;;;;;;9.83;76.97;97769.59;4970607;28;20110;-81
2022/11/09 02:17:01;;;;;;;4.88;4.10;;;;;;;9.82;77.42;97768.00;4970523;28;20070;-82
2022/11/09 02:19:26;;;;;;;5.47;4.22;;;;;;;9.79;76.86;97760.56;4970804;28;20066;-81
2022/11/09 02:21:52;;;;;;;6.35;4.13;;;;;;;9.81;77.29;97761.16;4970268;28;20543;-81
2022/11/09 02:24:18;;;;;;;4.72;4.10;;;;;;;9.85;77.28;97764.19;4970429;28;20069;-81
2022/11/09 02:26:50;;;;;;;5.85;3.95;;;;;;;9.77;77.01;97754.69;4970146;28;20041;-81
2022/11/09 02:29:26;;;;;;;5.28;4.10;;;;;;;9.86;77.48;97774.47;4969776;28;20117;-81
2022/11/09 02:32:01;;;;;;;7.43;4.65;;;;;;;9.86;77.15;97777.06;4968712;28;20038;-81
2022/11/09 02:34:27;;;;;;;6.63;4.32;;;;;;;9.90;77.31;97774.88;4968616;28;20027;-81
2022/11/09 02:36:53;;;;;;;8.07;4.65;;;;;;;9.97;77.47;97786.16;4975567;28;20038;-81
2022/11/09 02:39:25;;;;;;;4.88;4.03;;;;;;;10.06;77.02;97784.91;4970214;28;20517;-81
2022/11/09 02:42:00;;;;;;;5.10;4.18;;;;;;;10.16;77.74;97792.38;4968221;28;20039;-81
2022/11/09 02:44:31;;;;;;;5.10;3.88;;;;;;;10.19;75.17;97794.56;4985520;28;20081;-81
2022/11/09 02:46:57;;;;;;;6.80;3.83;;;;;;;10.24;75.56;97794.00;4970857;28;20089;-81
2022/11/09 02:49:22;;;;;;;4.53;4.03;;;;;;;10.28;75.56;97793.38;4969832;28;20038;-81
2022/11/09 02:51:47;;;;;;;5.45;3.95;;;;;;;10.31;75.44;97787.72;4969842;28;20065;-81
2022/11/09 02:54:13;;;;;;;4.28;3.83;;;;;;;10.29;75.66;97787.13;4966411;28;20035;-81
2022/11/09 02:56:39;;;;;;;4.63;4.10;;;;;;;10.30;75.76;97780.88;4969537;28;20073;-81
2022/11/09 02:59:04;;;;;;;4.45;3.80;;;;;;;10.30;75.14;97780.06;4969217;28;20121;-82
2022/11/09 03:01:30;;;;;;;4.53;3.80;;;;;;;10.28;74.28;97782.09;4969791;28;20062;-81
2022/11/09 03:03:55;;;;;;;4.95;3.75;;;;;;;10.26;74.63;97784.94;4969602;28;20053;-81
2022/11/09 03:06:33;;;;;;;5.10;3.42;;;;;;;10.27;74.83;97794.41;4969453;28;20134;-81
2022/11/09 03:09:04;;;;;;;6.20;3.95;;;;;;;10.20;74.72;97790.97;4984650;28;20050;-81
2022/11/09 03:11:30;;;;;;;4.60;3.90;;;;;;;10.22;74.94;97796.78;4970406;28;20034;-81
2022/11/09 03:13:56;;;;;;;5.15;3.80;;;;;;;10.29;75.43;97796.81;4969774;28;20125;-81
2022/11/09 03:16:22;;;;;;;5.20;3.83;;;;;;;10.33;75.17;97796.19;4969458;28;20089;-81
2022/11/09 03:18:47;;;;;;;6.32;3.67;;;;;;;10.44;75.06;97806.06;4969230;28;20031;-81
2022/11/09 03:21:13;;;;;;;4.25;3.50;;;;;;;10.47;74.49;97801.41;4969486;28;20093;-81
2022/11/09 03:23:38;;;;;;;5.13;3.60;;;;;;;10.48;74.40;97814.31;4969756;28;20031;-82
2022/11/09 03:26:04;;;;;;;4.55;3.85;;;;;;;10.51;75.09;97810.47;4969317;28;20077;-82
2022/11/09 03:28:30;;;;;;;5.82;3.47;;;;;;;10.55;74.24;97809.03;4969905;28;20042;-81
2022/11/09 03:30:55;;;;;;;3.85;3.08;;;;;;;10.59;74.71;97816.28;4967553;28;20050;-81
2022/11/09 03:33:21;;;;;;;4.28;3.40;;;;;;;10.57;74.33;97828.81;4969394;28;20050;-81
2022/11/09 03:35:46;;;;;;;5.47;3.75;;;;;;;10.56;74.49;97827.22;4969513;28;20109;-81
2022/11/09 03:38:12;;;;;;;5.32;3.53;;;;;;;10.63;75.23;97820.13;4975305;28;20493;-81
2022/11/09 03:40:38;;;;;;;4.15;3.60;;;;;;;10.65;74.80;97825.16;4967694;28;20069;-81
2022/11/09 03:43:04;;;;;;;5.97;3.60;;;;;;;10.66;74.05;97837.25;4969300;28;20037;-82
2022/11/09 03:45:30;;;;;;;4.82;3.80;;;;;;;10.75;75.51;97822.13;4969965;28;20117;-82
2022/11/09 03:47:58;;;;;;;5.18;3.10;;;;;;;10.70;75.12;97812.22;4969316;28;20039;-81
2022/11/09 03:50:26;;;;;;;4.05;3.28;;;;;;;10.75;74.28;97820.28;4969666;28;20121;-81
2022/11/09 03:52:52;;;;;;;7.30;3.60;;;;;;;10.79;74.91;97810.97;4981964;28;20030;-82
2022/11/09 03:55:18;;;;;;;5.55;3.65;;;;;;;10.79;73.85;97810.16;4973169;28;20042;-81
2022/11/09 03:57:45;;;;;;;4.13;3.05;;;;;;;10.76;73.59;97814.03;4971360;28;20117;-81
2022/11/09 04:00:13;;;;;;;4.82;3.30;;;;;;;10.74;73.58;97810.00;4972479;28;20026;-81
2022/11/09 04:02:39;;;;;;;4.88;3.58;;;;;;;10.70;73.96;97799.13;4972548;28;20122;-81
2022/11/09 04:05:06;;;;;;;4.93;3.30;;;;;;;10.71;74.44;97804.16;4972720;28;20110;-81
2022/11/09 04:07:31;;;;;;;4.05;3.33;;;;;;;10.65;74.29;97798.94;4973042;28;20043;-82
2022/11/09 04:09:57;;;;;;;3.90;3.10;;;;;;;10.70;74.97;97812.22;4972991;28;20042;-81
2022/11/09 04:12:23;;;;;;;4.22;3.05;;;;;;;10.67;74.81;97807.38;4972779;28;20501;-81
2022/11/09 04:14:48;;;;;;;5.90;3.60;;;;;;;10.65;75.13;97819.91;4972192;28;20030;-81
2022/11/09 04:17:14;;;;;;;4.18;3.38;;;;;;;10.58;75.79;97829.63;4972988;28;20053;-81
2022/11/09 04:19:40;;;;;;;4.65;3.63;;;;;;;10.59;75.97;97836.47;4972464;28;20042;-81
2022/11/09 04:22:05;;;;;;;5.20;3.47;;;;;;;10.58;75.04;97830.44;4972639;28;20053;-81
2022/11/09 04:24:31;;;;;;;4.68;3.72;;;;;;;10.61;75.52;97830.00;4970802;28;20227;-82
2022/11/09 04:26:56;;;;;;;5.50;3.47;;;;;;;10.66;74.84;97822.31;4972127;28;20030;-82
2022/11/09 04:29:22;;;;;;;5.53;3.58;;;;;;;10.63;74.59;97817.50;4971493;28;20047;-81
2022/11/09 04:31:48;;;;;;;6.75;3.83;;;;;;;10.55;74.53;97814.28;4971926;28;20109;-81
2022/11/09 04:34:14;;;;;;;5.55;3.70;;;;;;;10.61;74.69;97823.94;4972450;28;20114;-81
2022/11/09 04:36:39;;;;;;;4.82;3.97;;;;;;;10.60;74.36;97827.59;4972120;28;20106;-82
2022/11/09 04:39:05;;;;;;;4.15;3.70;;;;;;;10.67;75.04;97823.13;4971885;28;20562;-82
2022/11/09 04:41:31;;;;;;;4.28;3.50;;;;;;;10.61;75.29;97823.94;4971253;28;20497;-81
2022/11/09 04:43:56;;;;;;;4.03;3.60;;;;;;;10.65;75.33;97819.91;4972146;28;20047;-81
2022/11/09 04:46:22;;;;;;;5.47;3.80;;;;;;;10.72;73.87;97816.25;4972534;28;20038;-80
2022/11/09 04:48:47;;;;;;;4.90;3.58;;;;;;;10.78;72.73;97812.00;4972269;28;20602;-81
2022/11/09 04:51:13;;;;;;;4.80;3.78;;;;;;;10.80;73.67;97820.47;4972073;28;20098;-81
2022/11/09 04:53:38;;;;;;;4.75;3.47;;;;;;;10.80;73.00;97828.34;4969105;28;20390;-81
2022/11/09 04:56:06;;;;;;;4.05;3.65;;;;;;;10.85;74.42;97828.50;4971800;28;20038;-81
2022/11/09 04:58:31;;;;;;;5.13;3.70;;;;;;;10.90;74.54;97839.19;4972159;28;20042;-81
2022/11/09 05:01:10;;;;;;;4.80;3.50;;;;;;;10.93;74.81;97838.00;4971673;28;20026;-81
2022/11/09 05:03:37;;;;;;;4.78;3.45;;;;;;;10.95;75.04;97843.81;4969309;28;20105;-81
2022/11/09 05:06:30;;;;;;;5.13;3.63;;;;;;;10.96;74.82;97848.84;4971711;28;20053;-81
2022/11/09 05:08:49;;;;;;;6.15;4.00;;;;;;;10.98;75.27;97846.03;4971461;28;20035;-81
2022/11/09 05:11:14;;;;;;;4.40;3.33;;;;;;;10.96;75.34;97848.84;4969739;28;20042;-80
2022/11/09 05:13:40;;;;;;;4.85;3.85;;;;;;;10.94;75.32;97848.28;4971341;28;20591;-81
2022/11/09 05:16:05;;;;;;;5.35;3.72;;;;;;;10.98;75.36;97854.72;4971447;28;20109;-81
2022/11/09 05:18:31;;;;;;;4.63;3.35;;;;;;;10.97;74.80;97855.75;4971089;28;20049;-81
2022/11/09 05:21:01;;;;;;;6.43;3.30;;;;;;;10.98;75.03;97857.34;4971776;28;20030;-81
2022/11/09 05:26:11;;;;;;;3.83;3.20;;;;;;;11.02;75.64;97862.97;4970953;28;20483;-81
2022/11/09 05:28:37;;;;;;;5.85;3.90;;;;;;;11.02;74.45;97860.34;4970911;28;20039;-81
2022/11/09 05:31:04;;;;;;;5.95;3.90;;;;;;;10.98;74.56;97864.41;4970594;28;20368;-81
2022/11/09 05:33:30;;;;;;;4.40;3.22;;;;;;;10.93;74.70;97870.28;4970612;28;20027;-81
2022/11/09 05:35:56;;;;;;;5.05;3.78;;;;;;;10.91;74.88;97888.03;4969605;28;20737;-81
2022/11/09 05:38:23;;;;;;;5.85;3.50;;;;;;;10.87;75.51;97876.34;4968755;28;20507;-81
2022/11/09 05:40:51;;;;;;;4.32;3.50;;;;;;;10.86;75.13;97880.00;4985469;28;20026;-81
2022/11/09 05:43:17;;;;;;;4.95;3.88;;;;;;;10.83;75.08;97901.38;4970470;28;20499;-81
2022/11/09 05:45:43;;;;;;;5.78;3.92;;;;;;;10.86;75.65;97911.47;4971158;28;20098;-81
2022/11/09 05:48:12;;;;;;;6.30;4.05;;;;;;;10.92;76.78;97910.66;4970444;28;20101;-81
2022/11/09 05:50:38;;;;;;;6.28;4.07;;;;;;;10.99;76.85;97924.56;4969979;28;20109;-80
2022/11/09 05:53:04;;;;;;;4.75;4.00;;;;;;;11.04;77.58;97928.38;4968675;28;20110;-81
2022/11/09 05:55:29;;;;;;;5.07;4.10;;;;;;;11.08;78.48;97927.75;4971116;28;20027;-80
2022/11/09 05:57:55;;;;;;;7.57;4.85;;;;;;;11.12;79.92;97922.91;4970842;28;20113;-81
2022/11/09 06:00:21;;;;;;;8.52;4.80;;;;;;;11.10;80.31;97917.06;4969448;28;20513;-80
2022/11/09 06:02:47;;;;;;;6.38;4.88;;;;;;;11.04;80.72;97900.31;4967213;28;20035;-80
2022/11/09 06:05:13;;;;;;;6.25;5.10;;;;;;;10.95;80.00;97899.72;4984900;28;20045;-81
2022/11/09 06:07:38;;;;;;;8.77;4.95;;;;;;;10.88;80.91;97898.16;4970436;28;20037;-81
2022/11/09 06:10:05;;;;;;;5.82;4.25;;;;;;;10.76;80.99;97899.78;4970361;28;20118;-80
2022/11/09 06:12:30;;;;;;;6.65;4.25;;;;;;;10.68;81.77;97901.63;4970497;28;20035;-81
2022/11/09 06:14:56;;;;;;;5.75;4.20;;;;;;;10.53;82.49;97897.59;4969837;28;20066;-81
2022/11/09 06:17:21;;;;;;;6.00;4.63;;;;;;;10.50;83.50;97903.28;4969825;28;20042;-81
2022/11/09 06:19:47;;;;;;;6.97;4.70;;;;;;;10.28;84.68;97906.09;4969404;28;20034;-81
2022/11/09 06:22:13;;;;;;;5.30;4.38;;;;;;;10.21;85.03;97905.25;4968904;28;20046;-80
2022/11/09 06:24:39;;;;;;;7.47;4.80;;;;;;;10.16;84.77;97884.91;4967929;28;20035;-81
2022/11/09 06:27:05;;;;;;;8.68;4.30;;;;;;;10.19;84.82;97904.63;4969277;28;20034;-81
2022/11/09 06:29:30;;;;;;;7.45;4.53;;;;;;;10.10;85.49;97905.84;4969402;28;20113;-81
2022/11/09 06:31:56;;;;;;;5.80;4.07;;;;;;;9.86;86.73;97905.44;4969290;28;20034;-81
2022/11/09 06:34:21;;;;;;;8.15;4.65;;;;;;;9.76;87.60;97909.44;4968938;28;20046;-81
2022/11/09 06:36:46;;;;;;;7.45;4.80;;;;;;;9.72;87.87;97919.53;4970059;28;20097;-83
2022/11/09 06:39:12;;;;;;;8.02;4.93;;;;;;;9.71;88.41;97912.63;4969435;28;20031;-81
2022/11/09 06:41:38;;;;;;;6.97;4.85;;;;;;;9.64;88.51;97910.00;4969528;28;20042;-83
2022/11/09 06:44:04;;;;;;;6.25;5.10;;;;;;;9.61;88.69;97907.81;4969782;28;20038;-81
2022/11/09 06:46:31;;;;;;;6.00;4.70;;;;;;;9.60;89.01;97911.44;4968747;28;20098;-82
2022/11/09 06:48:57;;;;;;;6.97;5.40;;;;;;;9.61;89.54;97901.75;4968921;28;20541;-82
2022/11/09 06:51:23;;;;;;;7.80;5.00;;;;;;;9.64;89.24;97911.81;4968404;28;20035;-81
2022/11/09 06:53:48;;;;;;;8.45;5.55;;;;;;;9.70;90.20;97918.88;4966282;28;20050;-82
2022/11/09 06:56:14;;;;;;;9.95;5.90;;;;;;;9.73;90.32;97920.31;4968014;28;20101;-82
2022/11/09 06:58:39;;;;;;;11.30;6.00;;;;;;;9.71;90.30;97920.50;4968151;28;20565;-82
2022/11/09 07:01:11;;;;;;;7.22;5.18;;;;;;;9.72;90.37;97930.00;4967269;28;20058;-82
2022/11/09 07:03:38;;;;;;;9.80;5.97;;;;;;;9.68;91.16;97930.56;4968019;28;20050;-82
2022/11/09 07:06:07;;;;;;;8.82;6.03;;;;;;;9.62;91.25;97916.47;4966299;28;20055;-82
2022/11/09 07:08:33;;;;;;;8.80;5.70;;;;;;;9.59;90.97;97929.94;4967184;28;20463;-82
2022/11/09 07:11:12;;;;;;;8.00;5.70;;;;;;;9.53;91.77;97930.72;4967926;28;20621;-81
2022/11/09 07:13:38;;;;;;;8.98;5.78;;;;;;;9.56;92.18;97940.81;4967124;28;20411;-82
2022/11/09 07:16:05;;;;;;;7.72;5.28;;;;;;;9.52;91.99;97931.72;4961541;28;20039;-81
2022/11/09 07:18:31;;;;;;;8.23;5.57;;;;;;;9.60;91.76;97935.00;4967198;28;20034;-82
2022/11/09 07:20:57;;;;;;;7.65;6.25;;;;;;;9.58;91.89;97934.38;4968364;28;20043;-81
2022/11/09 07:23:22;;;;;;;6.72;5.32;;;;;;;9.64;92.15;97928.34;4967902;28;20042;-82
2022/11/09 07:25:48;;;;;;;9.43;5.72;;;;;;;9.58;92.60;97936.19;4968562;28;20035;-81
2022/11/09 07:28:14;;;;;;;10.43;6.22;;;;;;;9.56;93.00;97932.97;4985649;28;20110;-82
2022/11/09 07:30:39;;;;;;;9.95;5.97;;;;;;;9.51;93.46;97941.41;4971583;28;20058;-82
2022/11/09 07:33:19;;;;;;;7.65;5.53;;;;;;;9.51;93.84;97924.88;4972428;28;20039;-81
2022/11/09 07:35:45;;;;;;;7.05;5.75;;;;;;;9.57;92.94;97948.47;4973135;28;20359;-81
2022/11/09 07:38:12;;;;;;;8.13;5.55;;;;;;;9.56;93.02;97946.84;4972272;28;20035;-82
2022/11/09 07:40:39;;;;;;;8.75;5.60;;;;;;;9.52;93.65;97956.09;4972907;28;20043;-81
2022/11/09 07:43:06;;;;;;;9.30;6.05;;;;;;;9.49;94.37;97955.69;4973165;28;20041;-82
2022/11/09 07:45:34;;;;;;;7.40;5.82;;;;;;;9.50;94.50;97952.06;4971728;28;20050;-82
2022/11/09 07:48:06;;;;;;;8.85;5.43;;;;;;;9.53;93.66;97951.66;4971934;28;20035;-81
2022/11/09 07:50:33;;;;;;;6.82;5.43;;;;;;;9.64;93.62;97951.09;4971410;28;20034;-81
2022/11/09 07:53:01;;;;;;;8.10;6.00;;;;;;;9.71;93.47;97949.31;4966418;28;20042;-81
2022/11/09 07:55:29;;;;;;;7.38;5.70;;;;;;;9.70;93.76;97950.31;4972226;28;20042;-82
2022/11/09 07:57:57;;;;;;;7.22;5.47;;;;;;;9.69;93.52;97946.09;4971738;28;20043;-81
2022/11/09 08:00:26;;;;;;;7.80;5.85;;;;;;;9.69;93.41;97950.53;4970195;28;20046;-81
2022/11/09 08:02:52;;;;;;;8.50;5.43;;;;;;;9.71;92.84;97959.78;4972324;28;20042;-81
2022/11/09 08:05:18;;;;;;;7.80;6.07;;;;;;;9.78;93.37;97952.78;4972092;28;20055;-81
2022/11/09 08:07:43;;;;;;;8.30;6.28;;;;;;;9.79;92.39;97957.00;4972304;28;20153;-81
2022/11/09 08:10:09;;;;;;;8.18;5.40;;;;;;;9.81;92.98;97985.59;4972794;28;20038;-82
2022/11/09 08:12:34;;;;;;;6.15;5.55;;;;;;;9.87;93.09;97964.66;4973559;28;20502;-81
2022/11/09 08:15:00;;;;;;;8.95;6.18;;;;;;;9.97;92.65;97960.88;4972551;28;20463;-82
2022/11/09 08:17:25;;;;;;;7.22;5.72;;;;;;;9.97;91.85;97958.25;4973137;28;20065;-81
2022/11/09 08:19:51;;;;;;;31.05;15.05;;;;;;;9.96;91.89;97972.38;4972621;28;20556;-81
2022/11/09 08:22:16;;;;;;;26.73;15.65;;;;;;;9.89;92.12;97967.88;4972605;28;20074;-82
2022/11/09 08:24:42;;;;;;;24.08;14.35;;;;;;;9.82;92.32;97972.31;4971355;28;20043;-82
2022/11/09 08:27:07;;;;;;;12.05;8.65;;;;;;;9.78;92.73;97978.97;4972980;28;20027;-82
2022/11/09 08:29:33;;;;;;;8.55;6.53;;;;;;;9.92;92.31;97958.84;4972103;28;20059;-81
2022/11/09 08:31:58;;;;;;;7.43;5.82;;;;;;;9.93;91.80;97974.34;4972175;28;20039;-81
2022/11/09 08:34:24;;;;;;;9.15;7.60;;;;;;;9.98;92.70;97983.44;4972322;28;20035;-81
2022/11/09 08:36:49;;;;;;;12.23;8.88;;;;;;;9.95;93.21;97986.44;4986770;28;20038;-81
2022/11/09 08:39:15;;;;;;;12.07;8.70;;;;;;;9.92;93.16;97980.59;4971594;28;20113;-81
2022/11/09 08:41:40;;;;;;;10.10;6.53;;;;;;;9.96;93.31;97972.38;4972144;28;20042;-82
2022/11/09 08:44:06;;;;;;;8.05;6.13;;;;;;;9.96;92.17;97977.59;4972162;28;20924;-82
2022/11/09 08:46:31;;;;;;;7.07;5.43;;;;;;;9.97;92.22;97981.84;4972230;28;20518;-81
2022/11/09 08:48:57;;;;;;;10.45;6.40;;;;;;;10.01;93.30;97986.47;4970745;28;20545;-81
2022/11/09 08:51:22;;;;;;;8.57;6.25;;;;;;;10.10;93.16;97990.53;4970952;28;20039;-82
2022/11/09 08:53:48;;;;;;;7.53;5.85;;;;;;;10.15;93.29;97993.34;4968628;28;20034;-81
2022/11/09 08:56:17;;;;;;;9.38;6.95;;;;;;;10.29;92.97;98004.69;4971923;28;20102;-81
2022/11/09 08:58:44;;;;;;;10.82;7.70;;;;;;;10.32;92.96;98000.88;4971430;28;20035;-81
2022/11/09 09:01:11;;;;;;;9.75;8.75;;;;;;;10.41;93.04;97992.59;4971729;28;20114;-82
2022/11/09 09:03:37;;;;;;;11.70;7.35;;;;;;;10.56;92.15;98002.09;4971879;28;20454;-81
2022/11/09 09:06:06;;;;;;;10.10;6.95;;;;;;;10.63;91.45;98010.78;4971437;28;20069;-84
2022/11/09 09:08:32;;;;;;;7.40;6.20;;;;;;;10.64;91.20;98004.53;4970738;28;20121;-84
2022/11/09 09:11:04;;;;;;;10.25;7.03;;;;;;;10.75;90.73;97998.66;4971562;28;20125;-84
2022/11/09 09:13:31;;;;;;;6.68;5.97;;;;;;;10.73;89.69;97995.41;4970071;28;20090;-84
2022/11/09 09:16:07;;;;;;;8.15;6.47;;;;;;;10.82;90.44;97999.47;4971459;28;20037;-83
2022/11/09 09:18:32;;;;;;;9.50;6.78;;;;;;;10.80;89.25;98012.00;4971437;28;20415;-84
2022/11/09 09:20:58;;;;;;;8.20;6.47;;;;;;;10.89;90.67;98023.88;4971266;28;20121;-81
2022/11/09 09:23:24;;;;;;;9.48;6.38;;;;;;;10.85;90.12;98022.66;4971659;28;20027;-82
2022/11/09 09:25:49;;;;;;;9.98;7.30;;;;;;;10.82;90.51;98028.31;4971198;28;20372;-81
2022/11/09 09:28:15;;;;;;;7.57;6.72;;;;;;;10.74;89.95;98004.94;4971143;28;20027;-82
2022/11/09 09:30:40;;;;;;;10.88;7.32;;;;;;;10.76;89.29;98015.22;4970704;28;20058;-81
2022/11/09 09:33:06;;;;;;;9.25;7.53;;;;;;;10.85;89.80;98008.72;4971342;28;20030;-81
2022/11/09 09:35:31;;;;;;;9.07;6.53;;;;;;;10.89;88.91;98010.75;4971309;28;20398;-81
2022/11/09 09:37:57;;;;;;;8.88;5.88;;;;;;;10.88;89.27;98014.41;4968139;28;20042;-81
2022/11/09 09:40:55;;;;;;;8.75;7.43;;;;;;;10.93;90.47;98005.91;4971207;28;20038;-81
2022/11/09 09:43:32;;;;;;;9.90;6.95;;;;;;;11.07;89.95;98002.25;4969715;28;20050;-82
2022/11/09 09:46:03;;;;;;;8.95;5.93;;;;;;;10.95;90.33;98007.31;4970899;28;20089;-82
2022/11/09 09:48:38;;;;;;;8.68;6.93;;;;;;;10.97;89.76;98005.31;4969402;28;20055;-81
2022/11/09 09:51:17;;;;;;;10.25;6.53;;;;;;;11.13;90.04;98011.13;4969553;28;20364;-81
2022/11/09 09:53:56;;;;;;;8.15;6.32;;;;;;;11.14;89.65;97997.78;4967972;28;20054;-82
2022/11/09 09:56:32;;;;;;;11.13;6.90;;;;;;;11.15;89.74;97998.59;4970982;28;20047;-81
2022/11/09 09:59:25;;;;;;;9.52;6.35;;;;;;;11.12;89.99;97994.56;4968764;28;20620;-82
2022/11/09 10:01:51;;;;;;;10.18;6.95;;;;;;;11.09;89.78;97988.91;4969736;28;20039;-81
2022/11/09 10:04:22;;;;;;;8.93;6.53;;;;;;;11.14;89.91;97982.03;4970330;28;20435;-81
2022/11/09 10:07:02;;;;;;;11.95;7.22;;;;;;;11.09;90.18;97983.66;4970441;28;20042;-81
2022/11/09 10:10:01;;;;;;;10.75;7.13;;;;;;;11.15;91.05;97983.66;4969902;28;20117;-82
2022/11/09 10:12:44;;;;;;;12.88;6.93;;;;;;;11.23;90.88;97978.19;4969076;28;20049;-81
2022/11/09 10:15:37;;;;;;;9.63;7.05;;;;;;;11.34;90.40;97971.50;4969814;28;20073;-81
2022/11/09 10:18:49;;;;;;;10.68;7.30;;;;;;;11.45;89.77;97965.59;4970421;28;20117;-81
2022/11/09 10:21:19;;;;;;;11.25;7.50;;;;;;;11.63;89.48;97966.72;4970129;28;20035;-82
2022/11/09 10:24:19;;;;;;;12.65;8.27;;;;;;;11.73;88.97;97970.53;4969870;28;20038;-82
2022/11/09 10:26:55;;;;;;;10.85;6.80;;;;;;;11.78;88.76;97965.44;4969791;28;20125;-81
2022/11/09 10:29:43;;;;;;;12.20;7.93;;;;;;;11.76;88.83;97964.06;4970224;28;20387;-82
2022/11/09 10:32:19;;;;;;;13.82;7.07;;;;;;;11.73;89.11;97964.47;4968764;28;20030;-81
2022/11/09 10:35:25;;;;;;;10.45;7.30;;;;;;;11.73;89.22;97964.47;4966753;28;20640;-81
2022/11/09 10:37:53;;;;;;;9.13;6.97;;;;;;;11.75;89.22;97959.78;4969784;28;20039;-81
2022/11/09 10:40:59;;;;;;;11.85;7.97;;;;;;;11.91;88.55;97950.66;4969779;28;20656;-82
2022/11/09 10:43:25;;;;;;;15.85;10.73;;;;;;;11.98;87.63;97954.84;4968582;28;20495;-82
2022/11/09 10:46:05;;;;;;;14.15;10.82;;;;;;;12.12;88.47;97973.19;4969652;28;20137;-82
2022/11/09 10:48:38;;;;;;;14.35;9.25;;;;;;;12.29;88.23;97971.63;4968977;28;20050;-81
2022/11/09 10:51:05;;;;;;;14.18;8.50;;;;;;;12.40;88.13;97964.88;4970266;28;20078;-81
2022/11/09 10:53:33;;;;;;;8.38;7.43;;;;;;;12.45;85.66;97963.22;4966607;28;20125;-81
2022/11/09 10:56:19;;;;;;;9.55;6.78;;;;;;;12.61;85.90;97955.81;4969559;28;20038;-82
2022/11/09 10:58:51;;;;;;;9.75;7.32;;;;;;;12.76;85.84;97961.53;4968040;28;20045;-82
2022/11/09 11:01:34;;;;;;;10.35;7.18;;;;;;;13.12;85.45;97953.69;4968246;28;20038;-82
2022/11/09 11:04:22;;;;;;;9.38;7.07;;;;;;;13.33;84.04;97941.16;4969281;28;20046;-82
2022/11/09 11:06:48;;;;;;;11.02;8.15;;;;;;;13.56;84.42;97949.16;4969259;28;20034;-81
2022/11/09 11:09:19;;;;;;;10.20;7.80;;;;;;;13.61;83.70;97938.78;4968922;28;20094;-82
2022/11/09 11:11:46;;;;;;;11.63;8.07;;;;;;;13.81;83.78;97935.88;4968401;28;20130;-81
2022/11/09 11:14:26;;;;;;;12.30;7.55;;;;;;;13.74;81.98;97939.63;4969675;28;20038;-82
2022/11/09 11:16:52;;;;;;;11.47;8.30;;;;;;;13.76;82.85;97933.09;4969189;28;20514;-82
2022/11/09 11:19:40;;;;;;;11.27;7.90;;;;;;;13.81;81.97;97919.25;4968218;28;20039;-82
2022/11/09 11:22:11;;;;;;;11.23;7.97;;;;;;;13.84;81.26;97916.16;4969364;28;20038;-82
2022/11/09 11:25:05;;;;;;;8.68;7.78;;;;;;;14.02;81.46;97910.00;4969671;28;20118;-82
2022/11/09 11:27:49;;;;;;;9.75;6.82;;;;;;;14.34;80.33;97921.09;4969513;28;20047;-82
2022/11/09 11:30:21;;;;;;;11.15;7.22;;;;;;;14.50;79.38;97917.78;4967742;28;20047;-82
2022/11/09 11:32:47;;;;;;;10.60;7.10;;;;;;;14.52;78.87;97910.47;4983545;28;20598;-82
2022/11/09 11:35:42;;;;;;;10.88;7.00;;;;;;;14.47;78.17;97906.91;4969774;28;20030;-83
2022/11/09 11:38:36;;;;;;;9.20;6.90;;;;;;;14.26;79.48;97916.13;4984741;28;20035;-82
2022/11/09 11:42:14;;;;;;;9.15;6.25;;;;;;;14.27;78.10;97913.25;4969219;28;20031;-82
2022/11/09 11:45:19;;;;;;;13.45;6.70;;;;;;;14.40;78.59;97905.16;4908874;29;20544;-82
2022/11/09 11:48:12;;;;;;;7.47;6.63;;;;;;;14.59;83.08;97911.16;4969203;28;20042;-83
2022/11/09 11:51:05;;;;;;;7.15;6.40;;;;;;;14.38;77.99;97909.03;4969276;28;20069;-82